Time;durP1;ratioP1;P1;durP2;ratioP2;P2;SDS_P1;SDS_P2;PMS_P1;PMS_P2;Temp;Humidity;BMP_temperature;BMP_pressure;BME280_temperature;BME280_humidity;BME280_pressure;Samples;Min_cycle;Max_cycle;Signal;HPM_P1;HPM_P2
2023/04/21 00:01:07;;;;;;;0.00;0.00;;;;;;;;;;6273014;22;20027;-93
2023/04/21 00:03:45;;;;;;;0.10;0.10;;;8.70;99.90;;;;;;6274005;22;20019;-95
2023/04/21 00:06:11;;;;;;;0.10;0.10;;;;;;;;;;6272257;22;19995;-95
2023/04/21 00:08:40;;;;;;;0.10;0.10;;;;;;;;;;6272067;22;20016;-92
2023/04/21 00:11:06;;;;;;;0.10;0.10;;;8.50;99.90;;;;;;6273643;22;19999;-93
2023/04/21 00:13:33;;;;;;;0.10;0.10;;;8.50;99.90;;;;;;6274021;22;19995;-92
2023/04/21 00:15:59;;;;;;;0.10;0.10;;;;;;;;;;6274214;22;20002;-96
2023/04/21 00:18:26;;;;;;;0.10;0.10;;;;;;;;;;6273768;22;20031;-96
2023/04/21 00:20:52;;;;;;;0.10;0.10;;;;;;;;;;6274567;22;20014;-92
2023/04/21 00:23:18;;;;;;;0.10;0.10;;;;;;;;;;6275105;22;20011;-95
2023/04/21 00:25:44;;;;;;;0.00;0.00;;;;;;;;;;6272510;22;20047;-94
2023/04/21 00:28:10;;;;;;;0.00;0.00;;;;;;;;;;6273296;22;20043;-95
2023/04/21 00:30:36;;;;;;;0.10;0.10;;;;;;;;;;6273450;22;19995;-95
2023/04/21 00:33:02;;;;;;;0.10;0.10;;;;;;;;;;6273542;22;19999;-93
2023/04/21 00:35:28;;;;;;;0.10;0.10;;;;;;;;;;6273146;22;20046;-94
2023/04/21 00:37:54;;;;;;;0.10;0.10;;;;;;;;;;6275676;22;20018;-95
2023/04/21 00:40:20;;;;;;;0.10;0.10;;;;;;;;;;6277131;22;20003;-94
2023/04/21 00:42:46;;;;;;;0.00;0.00;;;;;;;;;;6277250;22;20006;-94
2023/04/21 00:45:14;;;;;;;0.10;0.10;;;;;;;;;;6275505;22;20015;-94
2023/04/21 00:47:40;;;;;;;0.10;0.10;;;;;;;;;;6276588;22;20003;-94
2023/04/21 00:50:06;;;;;;;0.10;0.10;;;;;;;;;;6275957;22;19992;-96
2023/04/21 00:52:33;;;;;;;0.00;0.00;;;8.60;99.90;;;;;;6275873;22;19995;-94
2023/04/21 00:54:59;;;;;;;0.10;0.10;;;;;;;;;;6275926;22;20015;-96
2023/04/21 00:57:27;;;;;;;0.00;0.00;;;8.40;99.90;;;;;;6276283;22;19995;-95
2023/04/21 00:59:53;;;;;;;0.10;0.10;;;;;;;;;;6275152;22;20014;-93
2023/04/21 01:02:19;;;;;;;0.10;0.10;;;;;;;;;;6275315;22;19988;-95
2023/04/21 01:04:45;;;;;;;0.10;0.10;;;;;;;;;;6275125;22;20030;-94
2023/04/21 01:07:11;;;;;;;0.00;0.00;;;;;;;;;;6275738;22;19992;-95
2023/04/21 01:09:37;;;;;;;0.00;0.00;;;;;;;;;;6275562;22;20055;-95
2023/04/21 01:12:10;;;;;;;0.10;0.10;;;9.10;99.90;;;;;;6275197;22;20011;-94
2023/04/21 01:14:37;;;;;;;0.10;0.10;;;9.00;99.90;;;;;;6275142;22;19999;-94
2023/04/21 01:17:06;;;;;;;0.00;0.00;;;;;;;;;;6275076;22;20012;-95
2023/04/21 01:19:38;;;;;;;0.10;0.10;;;8.80;99.90;;;;;;6275157;22;20015;-95
2023/04/21 01:22:04;;;;;;;0.10;0.10;;;;;;;;;;6275555;22;20003;-95
2023/04/21 01:24:44;;;;;;;0.10;0.10;;;8.50;99.90;;;;;;6276024;22;20012;-94
2023/04/21 01:27:12;;;;;;;0.10;0.10;;;8.30;99.90;;;;;;6275036;22;20007;-94
2023/04/21 01:29:38;;;;;;;0.10;0.10;;;;;;;;;;6274570;22;20022;-95
2023/04/21 01:32:10;;;;;;;0.10;0.10;;;8.30;99.90;;;;;;6274742;22;20008;-95
2023/04/21 01:34:36;;;;;;;0.00;0.00;;;;;;;;;;6273454;22;20007;-95
2023/04/21 01:37:02;;;;;;;0.10;0.10;;;;;;;;;;6274805;22;20003;-95
2023/04/21 01:39:28;;;;;;;0.10;0.10;;;;;;;;;;6269299;22;20012;-95
2023/04/21 01:41:56;;;;;;;0.10;0.10;;;;;;;;;;6272965;22;19988;-94
2023/04/21 01:44:22;;;;;;;0.00;0.00;;;;;;;;;;6274808;22;20062;-94
2023/04/21 01:46:48;;;;;;;0.08;0.08;;;;;;;;;;6275165;22;20023;-95
2023/04/21 01:49:14;;;;;;;0.08;0.08;;;;;;;;;;6275411;22;20038;-94
2023/04/21 01:51:40;;;;;;;0.10;0.10;;;;;;;;;;6273404;22;20023;-95
2023/04/21 01:54:06;;;;;;;0.03;0.03;;;;;;;;;;6273776;22;20019;-94
2023/04/21 01:56:32;;;;;;;0.10;0.10;;;;;;;;;;6275781;22;19987;-93
2023/04/21 01:58:58;;;;;;;0.10;0.10;;;;;;;;;;6274292;22;20014;-95
2023/04/21 02:01:24;;;;;;;0.10;0.10;;;;;;;;;;6271091;22;19988;-94
2023/04/21 02:03:50;;;;;;;0.00;0.00;;;;;;;;;;6272657;22;19995;-95
2023/04/21 02:06:16;;;;;;;0.10;0.10;;;;;;;;;;6274514;22;20008;-96
2023/04/21 02:08:42;;;;;;;0.10;0.10;;;;;;;;;;6273047;22;20031;-95
2023/04/21 02:11:08;;;;;;;0.00;0.00;;;;;;;;;;6275151;22;20016;-95
2023/04/21 02:13:34;;;;;;;0.00;0.00;;;;;;;;;;6274763;22;20015;-94
2023/04/21 02:16:00;;;;;;;0.00;0.00;;;;;;;;;;6274518;22;20034;-95
2023/04/21 02:18:28;;;;;;;0.10;0.10;;;;;;;;;;6274670;22;20035;-95
2023/04/21 02:20:55;;;;;;;0.10;0.10;;;;;;;;;;6274694;22;19988;-94
2023/04/21 02:23:21;;;;;;;0.10;0.10;;;;;;;;;;6275086;22;19992;-95
2023/04/21 02:25:47;;;;;;;0.00;0.00;;;;;;;;;;6275495;22;20007;-94
2023/04/21 02:28:13;;;;;;;0.00;0.00;;;;;;;;;;6273265;22;20022;-95
2023/04/21 02:30:39;;;;;;;0.10;0.10;;;;;;;;;;6272697;22;20042;-93
2023/04/21 02:33:05;;;;;;;0.10;0.10;;;;;;;;;;6274943;22;20022;-94
2023/04/21 02:35:32;;;;;;;0.10;0.10;;;;;;;;;;6274014;22;19991;-95
2023/04/21 02:37:58;;;;;;;0.10;0.10;;;;;;;;;;6275091;22;20007;-93
2023/04/21 02:40:25;;;;;;;0.10;0.10;;;;;;;;;;6274569;22;20075;-95
2023/04/21 02:42:51;;;;;;;0.10;0.10;;;;;;;;;;6274805;22;20026;-95
2023/04/21 02:45:17;;;;;;;0.00;0.00;;;;;;;;;;6273996;22;19988;-95
2023/04/21 02:47:42;;;;;;;0.10;0.10;;;;;;;;;;6276007;22;20050;-95
2023/04/21 02:50:09;;;;;;;0.10;0.10;;;;;;;;;;6275203;22;19987;-95
2023/04/21 02:52:36;;;;;;;0.00;0.00;;;8.70;99.90;;;;;;6274611;22;20015;-96
2023/04/21 02:55:03;;;;;;;0.00;0.00;;;;;;;;;;6275849;22;19996;-95
2023/04/21 02:57:29;;;;;;;0.00;0.00;;;;;;;;;;6274344;22;20014;-95
2023/04/21 02:59:54;;;;;;;0.10;0.10;;;;;;;;;;6274181;22;19992;-94
2023/04/21 03:02:20;;;;;;;0.10;0.10;;;;;;;;;;6273887;22;20010;-94
2023/04/21 03:04:46;;;;;;;0.10;0.10;;;;;;;;;;6274709;22;20048;-95
2023/04/21 03:07:13;;;;;;;0.10;0.10;;;;;;;;;;6273641;22;19994;-94
2023/04/21 03:09:39;;;;;;;0.00;0.00;;;;;;;;;;6273554;22;19995;-95
2023/04/21 03:12:05;;;;;;;0.10;0.10;;;;;;;;;;6271630;22;20029;-95
2023/04/21 03:14:31;;;;;;;0.00;0.00;;;;;;;;;;6275434;22;20000;-95
2023/04/21 03:16:57;;;;;;;0.00;0.00;;;;;;;;;;6275854;22;19992;-95
2023/04/21 03:19:23;;;;;;;0.00;0.00;;;;;;;;;;6274378;22;20003;-92
2023/04/21 03:21:49;;;;;;;0.00;0.00;;;;;;;;;;6273227;22;20008;-94
2023/04/21 03:24:15;;;;;;;0.00;0.00;;;;;;;;;;6275361;22;20007;-94
2023/04/21 03:26:41;;;;;;;0.10;0.10;;;;;;;;;;6275645;22;19992;-96
2023/04/21 03:29:07;;;;;;;0.00;0.00;;;;;;;;;;6274128;22;19999;-94
2023/04/21 03:31:33;;;;;;;0.10;0.10;;;;;;;;;;6274657;22;19991;-95
2023/04/21 03:33:59;;;;;;;0.10;0.10;;;;;;;;;;6274495;22;20026;-95
2023/04/21 03:36:24;;;;;;;0.10;0.10;;;;;;;;;;6273509;22;19996;-95
2023/04/21 03:38:50;;;;;;;0.10;0.10;;;;;;;;;;6274470;22;19996;-94
2023/04/21 03:41:16;;;;;;;0.00;0.00;;;;;;;;;;6273024;22;20003;-95
2023/04/21 03:43:42;;;;;;;0.10;0.10;;;;;;;;;;6275181;22;20011;-95
2023/04/21 03:46:19;;;;;;;0.00;0.00;;;9.00;99.90;;;;;;6272376;22;20015;-95
2023/04/21 03:48:46;;;;;;;0.00;0.00;;;;;;;;;;6274000;22;20008;-95
2023/04/21 03:51:12;;;;;;;0.10;0.10;;;;;;;;;;6272321;22;20004;-95
2023/04/21 03:53:38;;;;;;;0.00;0.00;;;;;;;;;;6274514;22;20023;-95
2023/04/21 03:56:04;;;;;;;0.00;0.00;;;;;;;;;;6275374;22;19991;-95
2023/04/21 03:58:30;;;;;;;0.10;0.10;;;;;;;;;;6273568;22;19996;-95
2023/04/21 04:00:56;;;;;;;0.10;0.10;;;;;;;;;;6273760;22;19995;-95
2023/04/21 04:03:22;;;;;;;0.00;0.00;;;;;;;;;;6273851;22;19992;-94
2023/04/21 04:05:48;;;;;;;0.10;0.10;;;;;;;;;;6273821;22;20024;-95
2023/04/21 04:08:14;;;;;;;0.00;0.00;;;;;;;;;;6274441;22;20016;-94
2023/04/21 04:28:42;;;;;;;0.10;0.10;;;;;;;;;;6244399;23;20020;-88
2023/04/21 04:31:08;;;;;;;0.00;0.00;;;;;;;;;;6245465;23;20050;-88
2023/04/21 04:33:34;;;;;;;0.00;0.00;;;;;;;;;;6246329;23;20087;-88
2023/04/21 04:36:00;;;;;;;0.10;0.10;;;;;;;;;;6267013;22;20034;-88
2023/04/21 04:38:27;;;;;;;0.10;0.10;;;;;;;;;;6273966;22;20010;-88
2023/04/21 04:41:00;;;;;;;0.00;0.00;;;9.20;99.90;;;;;;6275305;22;20447;-87
2023/04/21 04:43:25;;;;;;;0.10;0.10;;;9.20;99.90;;;;;;6301139;22;20162;-86
2023/04/21 04:45:52;;;;;;;0.00;0.00;;;;;;;;;;6277002;22;20078;-87
2023/04/21 04:48:17;;;;;;;0.00;0.00;;;9.40;99.90;;;;;;6276549;22;20026;-87
2023/04/21 04:50:44;;;;;;;0.10;0.10;;;9.40;99.90;;;;;;6276976;22;20000;-87
2023/04/21 04:53:09;;;;;;;0.00;0.00;;;9.30;99.90;;;;;;6299893;22;20014;-87
2023/04/21 04:55:35;;;;;;;0.00;0.00;;;9.40;99.90;;;;;;6301686;22;20066;-86
2023/04/21 04:58:01;;;;;;;0.00;0.00;;;9.60;99.90;;;;;;6302059;22;20127;-87
2023/04/21 05:00:27;;;;;;;0.10;0.10;;;9.50;99.90;;;;;;6277130;22;20004;-88
2023/04/21 05:02:53;;;;;;;0.10;0.10;;;;;;;;;;6302718;22;20000;-86
2023/04/21 05:05:20;;;;;;;0.00;0.00;;;9.30;99.90;;;;;;6276447;22;20090;-86
2023/04/21 05:07:46;;;;;;;0.00;0.00;;;9.30;99.90;;;;;;6301651;22;20008;-87
2023/04/21 05:10:12;;;;;;;0.10;0.10;;;;;;;;;;6278264;22;20034;-87
2023/04/21 05:12:38;;;;;;;0.10;0.10;;;;;;;;;;6276500;22;20003;-86
2023/04/21 05:15:07;;;;;;;0.10;0.10;;;9.50;99.90;;;;;;6276528;22;20062;-87
2023/04/21 05:17:33;;;;;;;0.10;0.10;;;9.60;99.90;;;;;;6276152;22;20007;-87
2023/04/21 05:19:59;;;;;;;0.00;0.00;;;9.70;99.90;;;;;;6299799;22;20398;-87
2023/04/21 05:22:25;;;;;;;0.10;0.10;;;9.60;99.90;;;;;;6301255;22;20012;-86
2023/04/21 05:24:53;;;;;;;0.08;0.08;;;9.60;99.90;;;;;;6301144;22;20018;-86
2023/04/21 05:27:19;;;;;;;0.00;0.00;;;9.80;99.90;;;;;;6301579;22;20069;-88
2023/04/21 05:29:44;;;;;;;0.00;0.00;;;9.60;99.90;;;;;;6301144;22;20031;-86
2023/04/21 05:32:11;;;;;;;0.00;0.00;;;9.80;99.90;;;;;;6301556;22;20015;-87
2023/04/21 05:34:37;;;;;;;0.00;0.00;;;9.70;99.90;;;;;;6275273;22;20082;-88
2023/04/21 05:37:03;;;;;;;0.00;0.00;;;9.80;99.90;;;;;;6275190;22;19999;-87
2023/04/21 05:39:29;;;;;;;0.00;0.00;;;9.80;99.90;;;;;;6300991;22;20030;-88
2023/04/21 05:41:54;;;;;;;0.05;0.05;;;9.90;99.90;;;;;;6275753;22;20007;-86
2023/04/21 05:44:20;;;;;;;0.00;0.00;;;10.00;99.90;;;;;;6301857;22;20030;-86
2023/04/21 05:46:45;;;;;;;0.00;0.00;;;9.90;99.90;;;;;;6301346;22;20487;-88
2023/04/21 05:49:11;;;;;;;0.00;0.00;;;10.00;99.90;;;;;;6301859;22;20004;-86
2023/04/21 05:51:36;;;;;;;0.00;0.00;;;10.00;99.90;;;;;;6301378;22;20007;-86
2023/04/21 05:54:02;;;;;;;0.00;0.00;;;10.00;99.90;;;;;;6301456;22;20039;-87
2023/04/21 05:56:27;;;;;;;0.00;0.00;;;10.10;99.90;;;;;;6275246;22;20007;-88
2023/04/21 05:58:53;;;;;;;0.00;0.00;;;10.10;99.90;;;;;;6301540;22;20074;-87
2023/04/21 06:01:18;;;;;;;0.00;0.00;;;10.10;99.90;;;;;;6302272;22;19996;-86
2023/04/21 06:03:44;;;;;;;0.00;0.00;;;10.10;99.90;;;;;;6302174;22;20007;-86
2023/04/21 06:06:10;;;;;;;0.00;0.00;;;10.10;99.90;;;;;;6302050;22;20063;-87
2023/04/21 06:08:36;;;;;;;0.00;0.00;;;10.10;99.90;;;;;;6301042;22;20004;-88
2023/04/21 06:11:01;;;;;;;0.00;0.00;;;10.30;99.90;;;;;;6301431;22;20523;-86
2023/04/21 06:13:27;;;;;;;0.00;0.00;;;10.30;99.90;;;;;;6275663;22;20012;-87
2023/04/21 06:15:54;;;;;;;0.00;0.00;;;10.30;99.90;;;;;;6301272;22;20030;-87
2023/04/21 06:18:20;;;;;;;0.10;0.10;;;;;;;;;;6275951;22;20445;-86
2023/04/21 06:20:50;;;;;;;0.10;0.10;;;10.30;99.90;;;;;;6275099;22;20058;-86
2023/04/21 06:23:16;;;;;;;0.00;0.00;;;;;;;;;;6275512;22;20006;-86
2023/04/21 06:25:42;;;;;;;0.00;0.00;;;;;;;;;;6273916;22;20004;-85
2023/04/21 06:28:07;;;;;;;0.00;0.00;;;10.30;99.90;;;;;;6275775;22;20443;-87
2023/04/21 06:30:33;;;;;;;0.10;0.10;;;10.20;99.90;;;;;;6299126;22;20302;-88
2023/04/21 06:32:59;;;;;;;0.00;0.00;;;;;;;;;;6300752;22;20018;-85
2023/04/21 06:35:25;;;;;;;0.00;0.00;;;10.30;99.90;;;;;;6274769;22;20015;-87
2023/04/21 06:37:50;;;;;;;0.00;0.00;;;10.30;99.90;;;;;;6299225;22;20004;-87
2023/04/21 06:40:16;;;;;;;0.05;0.05;;;10.40;99.90;;;;;;6301448;22;20026;-86
2023/04/21 06:42:42;;;;;;;0.00;0.00;;;10.40;99.90;;;;;;6301202;22;19999;-88
2023/04/21 06:45:08;;;;;;;0.00;0.00;;;10.40;99.90;;;;;;6300566;22;20379;-87
2023/04/21 06:47:33;;;;;;;0.00;0.00;;;10.50;99.90;;;;;;6277449;22;20007;-86
2023/04/21 06:49:59;;;;;;;0.00;0.00;;;10.50;99.90;;;;;;6300812;22;20007;-87
2023/04/21 06:52:25;;;;;;;0.00;0.00;;;10.60;99.90;;;;;;6277218;22;20428;-88
2023/04/21 06:54:50;;;;;;;0.00;0.00;;;10.70;99.90;;;;;;6301190;22;20054;-86
2023/04/21 06:57:16;;;;;;;0.00;0.00;;;10.70;99.90;;;;;;6275843;22;20003;-87
2023/04/21 06:59:42;;;;;;;0.00;0.00;;;10.70;99.90;;;;;;6300076;22;20003;-87
2023/04/21 07:02:08;;;;;;;0.00;0.00;;;10.70;99.90;;;;;;6275115;22;20400;-86
2023/04/21 07:04:33;;;;;;;0.00;0.00;;;10.80;99.90;;;;;;6301973;22;20011;-87
2023/04/21 07:06:59;;;;;;;0.00;0.00;;;10.70;99.90;;;;;;6276078;22;20004;-88
2023/04/21 07:09:27;;;;;;;0.08;0.08;;;;;;;;;;6276986;22;20015;-87
2023/04/21 07:11:52;;;;;;;0.00;0.00;;;10.90;99.90;;;;;;6275200;22;19999;-87
2023/04/21 07:14:18;;;;;;;0.00;0.00;;;10.90;99.90;;;;;;6277574;22;20042;-86
2023/04/21 07:16:43;;;;;;;0.00;0.00;;;11.00;99.90;;;;;;6276234;22;20027;-87
2023/04/21 07:19:09;;;;;;;0.00;0.00;;;11.20;99.90;;;;;;6300569;22;20006;-88
2023/04/21 07:21:35;;;;;;;0.00;0.00;;;11.30;99.90;;;;;;6301586;22;20006;-87
2023/04/21 07:24:01;;;;;;;0.00;0.00;;;11.30;99.90;;;;;;6301274;22;20318;-88
2023/04/21 07:26:27;;;;;;;0.00;0.00;;;11.40;99.90;;;;;;6275504;22;20058;-87
2023/04/21 07:28:54;;;;;;;0.00;0.00;;;11.50;99.90;;;;;;6301016;22;20444;-89
2023/04/21 07:31:20;;;;;;;0.00;0.00;;;11.60;99.90;;;;;;6275723;22;20007;-89
2023/04/21 07:33:45;;;;;;;0.00;0.00;;;11.60;99.90;;;;;;6277008;22;20007;-88
2023/04/21 07:36:11;;;;;;;0.00;0.00;;;11.70;99.90;;;;;;6300541;22;20010;-86
2023/04/21 07:38:37;;;;;;;0.00;0.00;;;;;;;;;;6277305;22;19999;-86
2023/04/21 07:41:03;;;;;;;0.00;0.00;;;;;;;;;;6275595;22;19996;-88
2023/04/21 07:43:30;;;;;;;0.00;0.00;;;11.80;99.90;;;;;;6275582;22;20060;-87
2023/04/21 07:45:56;;;;;;;0.00;0.00;;;;;;;;;;6276379;22;20004;-88
2023/04/21 07:48:21;;;;;;;0.00;0.00;;;11.90;99.90;;;;;;6275421;22;20034;-88
2023/04/21 07:50:46;;;;;;;0.00;0.00;;;12.00;99.90;;;;;;6277032;22;20050;-87
2023/04/21 07:53:12;;;;;;;0.00;0.00;;;12.20;99.90;;;;;;6301773;22;20467;-87
2023/04/21 07:55:38;;;;;;;0.00;0.00;;;12.20;99.90;;;;;;6300696;22;20039;-86
2023/04/21 07:58:04;;;;;;;0.00;0.00;;;12.40;99.90;;;;;;6301161;22;19996;-88
2023/04/21 08:00:29;;;;;;;0.00;0.00;;;12.40;99.90;;;;;;6275644;22;20003;-87
2023/04/21 08:02:55;;;;;;;0.00;0.00;;;12.30;99.90;;;;;;6276825;22;20447;-88
2023/04/21 08:05:21;;;;;;;0.00;0.00;;;12.30;99.90;;;;;;6301257;22;20059;-87
2023/04/21 08:07:46;;;;;;;0.00;0.00;;;12.40;99.90;;;;;;6277258;22;20014;-87
2023/04/21 08:10:12;;;;;;;0.00;0.00;;;12.60;99.90;;;;;;6300991;22;20491;-87
2023/04/21 08:12:37;;;;;;;0.00;0.00;;;12.70;99.90;;;;;;6301167;22;20008;-87
2023/04/21 08:15:07;;;;;;;0.00;0.00;;;12.70;99.90;;;;;;6300279;22;20061;-89
2023/04/21 08:17:32;;;;;;;0.00;0.00;;;12.80;99.90;;;;;;6274649;22;20372;-87
2023/04/21 08:19:58;;;;;;;0.00;0.00;;;12.90;99.90;;;;;;6277282;22;20010;-87
2023/04/21 08:22:23;;;;;;;0.00;0.00;;;12.90;99.90;;;;;;6301147;22;20038;-87
2023/04/21 08:24:49;;;;;;;0.00;0.00;;;12.90;99.90;;;;;;6301077;22;20004;-86
2023/04/21 08:27:14;;;;;;;0.00;0.00;;;13.00;99.90;;;;;;6300982;22;20015;-87
2023/04/21 08:29:40;;;;;;;0.00;0.00;;;13.10;99.90;;;;;;6301083;22;20220;-88
2023/04/21 08:32:05;;;;;;;0.00;0.00;;;13.00;99.90;;;;;;6301024;22;20459;-89
2023/04/21 08:34:31;;;;;;;0.00;0.00;;;13.20;99.90;;;;;;6301127;22;20069;-87
2023/04/21 08:36:56;;;;;;;0.00;0.00;;;13.20;99.90;;;;;;6301182;22;20007;-87
2023/04/21 08:39:22;;;;;;;0.00;0.00;;;13.30;99.90;;;;;;6276885;22;20310;-89
2023/04/21 08:41:49;;;;;;;0.00;0.00;;;13.40;99.90;;;;;;6300537;22;20484;-87
2023/04/21 08:44:15;;;;;;;0.00;0.00;;;13.50;99.90;;;;;;6274922;22;20034;-88
2023/04/21 08:46:43;;;;;;;0.00;0.00;;;13.60;99.90;;;;;;6300658;22;19999;-87
2023/04/21 08:49:10;;;;;;;0.00;0.00;;;13.60;99.90;;;;;;6275328;22;20059;-88
2023/04/21 08:51:35;;;;;;;0.00;0.00;;;13.60;99.90;;;;;;6275216;22;20031;-87
2023/04/21 08:54:01;;;;;;;0.00;0.00;;;13.60;99.90;;;;;;6300953;22;20461;-87
2023/04/21 08:56:26;;;;;;;0.00;0.00;;;13.70;99.90;;;;;;6301535;22;20022;-89
2023/04/21 08:58:52;;;;;;;0.00;0.00;;;13.80;99.90;;;;;;6277240;22;20429;-86
2023/04/21 09:01:18;;;;;;;0.00;0.00;;;13.80;99.90;;;;;;6302730;22;20007;-86
2023/04/21 09:03:43;;;;;;;0.00;0.00;;;13.80;99.90;;;;;;6303600;22;20428;-89
2023/04/21 09:06:11;;;;;;;0.00;0.00;;;14.00;99.90;;;;;;6302723;22;20053;-89
2023/04/21 09:08:41;;;;;;;0.00;0.00;;;14.00;99.90;;;;;;6279239;22;20425;-86
2023/04/21 09:11:06;;;;;;;;;;;14.00;99.90;;;;;;6277597;22;20040;-86
2023/04/21 09:13:36;;;;;;;0.00;0.00;;;14.10;99.90;;;;;;6277431;22;19926;-88
2023/04/21 09:16:04;;;;;;;0.00;0.00;;;14.20;99.90;;;;;;6277412;22;20003;-88
2023/04/21 09:18:34;;;;;;;0.00;0.00;;;14.30;99.90;;;;;;6276743;22;20384;-88
2023/04/21 09:21:10;;;;;;;0.00;0.00;;;14.30;99.90;;;;;;6277110;22;20427;-88
2023/04/21 09:23:51;;;;;;;0.00;0.00;;;16.40;99.90;;;;;;6252068;22;20010;-88
2023/04/21 09:26:18;;;;;;;0.00;0.00;;;14.40;99.90;;;;;;6276694;22;20010;-89
2023/04/21 09:28:46;;;;;;;0.00;0.00;;;14.50;99.90;;;;;;6246271;23;20016;-87
2023/04/21 09:31:27;;;;;;;0.00;0.00;;;14.60;99.90;;;;;;6248380;22;20075;-87
2023/04/21 09:33:56;;;;;;;0.00;0.00;;;14.70;99.90;;;;;;6246727;23;20015;-89
2023/04/21 09:36:23;;;;;;;0.00;0.00;;;14.80;99.90;;;;;;6246722;23;20148;-88
2023/04/21 09:38:52;;;;;;;0.00;0.00;;;15.00;99.90;;;;;;6245931;23;20011;-87
2023/04/21 09:41:18;;;;;;;0.00;0.00;;;15.10;99.90;;;;;;6246492;23;20388;-87
2023/04/21 09:43:44;;;;;;;0.00;0.00;;;15.10;99.90;;;;;;6246808;23;20032;-86
2023/04/21 09:46:11;;;;;;;0.00;0.00;;;15.10;99.90;;;;;;6246594;23;20034;-89
2023/04/21 09:48:42;;;;;;;0.00;0.00;;;15.20;99.90;;;;;;6247229;23;20074;-86
2023/04/21 09:51:08;;;;;;;0.00;0.00;;;15.30;99.90;;;;;;6245840;23;20027;-88
2023/04/21 09:53:37;;;;;;;0.00;0.00;;;15.30;99.90;;;;;;6220667;23;20008;-88
2023/04/21 09:56:04;;;;;;;0.00;0.00;;;15.50;99.90;;;;;;6246049;23;20441;-89
2023/04/21 09:58:37;;;;;;;0.00;0.00;;;15.60;99.90;;;;;;6246794;23;20004;-89
2023/04/21 10:01:03;;;;;;;0.00;0.00;;;15.70;99.90;;;;;;6246100;23;20008;-89
2023/04/21 10:03:30;;;;;;;0.00;0.00;;;15.70;99.90;;;;;;6246729;23;20092;-89
2023/04/21 10:05:56;;;;;;;0.00;0.00;;;15.80;99.90;;;;;;6247839;22;20103;-89
2023/04/21 10:08:21;;;;;;;0.00;0.00;;;15.80;99.90;;;;;;6246436;23;20078;-86
2023/04/21 10:10:47;;;;;;;0.00;0.00;;;15.90;99.90;;;;;;6246248;23;20024;-88
2023/04/21 10:13:15;;;;;;;0.00;0.00;;;16.00;99.90;;;;;;6246268;23;20031;-87
2023/04/21 10:15:41;;;;;;;0.00;0.00;;;16.10;99.90;;;;;;6247565;22;20031;-88
2023/04/21 10:18:18;;;;;;;0.00;0.00;;;16.20;99.90;;;;;;6245832;22;19996;-87
2023/04/21 10:21:06;;;;;;;0.00;0.00;;;16.20;99.90;;;;;;6245388;23;20000;-87
2023/04/21 10:23:35;;;;;;;0.00;0.00;;;16.30;99.90;;;;;;6244535;23;20488;-89
2023/04/21 10:26:21;;;;;;;0.00;0.00;;;16.40;99.90;;;;;;6243756;23;20011;-89
2023/04/21 10:29:00;;;;;;;0.00;0.00;;;16.50;99.90;;;;;;6246502;22;20008;-87
2023/04/21 10:31:33;;;;;;;0.00;0.00;;;16.60;99.90;;;;;;6244250;23;20004;-87
2023/04/21 10:34:05;;;;;;;0.00;0.00;;;16.70;99.90;;;;;;6245821;22;20004;-88
2023/04/21 10:36:31;;;;;;;0.00;0.00;;;16.70;99.90;;;;;;6246026;22;20023;-87
2023/04/21 10:39:02;;;;;;;0.00;0.00;;;16.90;98.90;;;;;;6244577;23;20588;-89
2023/04/21 10:41:32;;;;;;;0.00;0.00;;;17.00;97.90;;;;;;6246336;22;20430;-93
2023/04/21 10:44:11;;;;;;;0.00;0.00;;;17.10;97.10;;;;;;6308133;22;20072;-94
2023/04/21 10:46:39;;;;;;;0.00;0.00;;;17.20;97.50;;;;;;6307662;22;19995;-93
2023/04/21 10:49:08;;;;;;;0.00;0.00;;;17.20;95.50;;;;;;6307616;22;20054;-93
2023/04/21 10:52:02;;;;;;;0.00;0.00;;;17.20;96.10;;;;;;6322767;22;20081;-95
2023/04/21 10:54:46;;;;;;;0.00;0.00;;;17.30;96.40;;;;;;6337858;22;20075;-94
2023/04/21 10:57:15;;;;;;;0.00;0.00;;;17.40;94.50;;;;;;6337070;22;19995;-94
2023/04/21 10:59:41;;;;;;;0.00;0.00;;;;;;;;;;6336595;22;19986;-94
2023/04/21 11:02:09;;;;;;;0.00;0.00;;;17.70;95.00;;;;;;6336890;22;19987;-95
2023/04/21 11:04:35;;;;;;;0.00;0.00;;;;;;;;;;6337659;22;20248;-93
2023/04/21 11:07:16;;;;;;;0.00;0.00;;;17.90;92.80;;;;;;6337805;22;20002;-94
2023/04/21 11:09:42;;;;;;;0.00;0.00;;;18.10;93.00;;;;;;6338239;22;20015;-94
2023/04/21 11:12:11;;;;;;;0.00;0.00;;;18.30;91.40;;;;;;6338052;22;20059;-95
2023/04/21 11:14:38;;;;;;;0.00;0.00;;;18.20;91.40;;;;;;6338158;22;20009;-94
2023/04/21 11:17:09;;;;;;;0.00;0.00;;;18.20;91.20;;;;;;6337120;22;19995;-95
2023/04/21 11:19:35;;;;;;;0.00;0.00;;;;;;;;;;6337481;22;19991;-94
2023/04/21 11:22:01;;;;;;;0.00;0.00;;;;;;;;;;6338022;22;20020;-94
2023/04/21 11:24:27;;;;;;;0.00;0.00;;;;;;;;;;6336191;22;19991;-94
2023/04/21 11:26:53;;;;;;;0.00;0.00;;;;;;;;;;6337274;22;20010;-94
2023/04/21 11:29:19;;;;;;;0.00;0.00;;;;;;;;;;6338552;22;20014;-94
2023/04/21 11:31:47;;;;;;;0.00;0.00;;;18.10;90.50;;;;;;6337410;22;19995;-94
2023/04/21 11:34:15;;;;;;;0.00;0.00;;;18.20;90.20;;;;;;6338478;22;19998;-94
2023/04/21 11:36:43;;;;;;;0.00;0.00;;;18.20;87.30;;;;;;6362451;22;20013;-95
2023/04/21 11:39:12;;;;;;;0.00;0.00;;;18.20;87.40;;;;;;6337749;22;20048;-94
2023/04/21 11:41:45;;;;;;;0.00;0.00;;;18.10;85.70;;;;;;6337257;22;19990;-95
2023/04/21 11:44:12;;;;;;;0.00;0.00;;;18.20;86.80;;;;;;6338206;22;19995;-93
2023/04/21 11:46:45;;;;;;;0.00;0.00;;;18.30;89.40;;;;;;6338211;22;19983;-93
2023/04/21 11:49:12;;;;;;;0.00;0.00;;;18.40;86.80;;;;;;6336206;22;20054;-94
2023/04/21 11:51:42;;;;;;;0.00;0.00;;;18.30;86.00;;;;;;6337140;22;19987;-94
2023/04/21 11:54:12;;;;;;;0.00;0.00;;;18.50;85.80;;;;;;6335994;22;20055;-93
2023/04/21 11:56:40;;;;;;;0.00;0.00;;;18.60;84.80;;;;;;6335135;22;20006;-93
2023/04/21 11:59:18;;;;;;;0.00;0.00;;;20.50;86.30;;;;;;6336260;22;19995;-93
2023/04/21 12:01:51;;;;;;;0.00;0.00;;;18.70;85.30;;;;;;6332231;22;20013;-93
2023/04/21 12:04:22;;;;;;;0.00;0.00;;;18.80;81.40;;;;;;6333771;22;20055;-93
2023/04/21 12:06:59;;;;;;;0.00;0.00;;;18.80;82.20;;;;;;6332519;22;20006;-93
2023/04/21 12:09:25;;;;;;;0.00;0.00;;;18.20;82.40;;;;;;6334179;22;20033;-93
2023/04/21 12:11:52;;;;;;;0.00;0.00;;;19.00;83.40;;;;;;6336501;22;19987;-94
2023/04/21 12:14:22;;;;;;;0.00;0.00;;;19.10;81.80;;;;;;6334259;22;20006;-94
2023/04/21 12:16:50;;;;;;;0.00;0.00;;;19.20;80.50;;;;;;6334362;22;19994;-94
2023/04/21 12:19:42;;;;;;;0.00;0.00;;;19.20;80.50;;;;;;6338073;22;20015;-93
2023/04/21 12:22:12;;;;;;;0.00;0.00;;;19.30;81.40;;;;;;6330488;22;20033;-95
2023/04/21 12:24:39;;;;;;;0.00;0.00;;;19.30;81.10;;;;;;6336125;22;20011;-94
2023/04/21 12:27:05;;;;;;;0.00;0.00;;;19.40;82.00;;;;;;6333970;22;20051;-94
2023/04/21 12:29:33;;;;;;;0.00;0.00;;;19.40;80.80;;;;;;6334277;22;20006;-94
2023/04/21 12:31:59;;;;;;;0.00;0.00;;;;;;;;;;6365232;22;19998;-95
2023/04/21 12:34:25;;;;;;;0.00;0.00;;;;;;;;;;6339988;22;20036;-95
2023/04/21 12:36:51;;;;;;;0.00;0.00;;;;;;;;;;6339596;22;19987;-94
2023/04/21 12:39:18;;;;;;;0.00;0.00;;;;;;;;;;6339068;22;19987;-94
2023/04/21 12:41:46;;;;;;;0.00;0.00;;;19.70;79.00;;;;;;6339176;22;19999;-95
2023/04/21 12:44:12;;;;;;;0.00;0.00;;;;;;;;;;6339298;22;20021;-94
2023/04/21 12:46:38;;;;;;;0.00;0.00;;;;;;;;;;6336759;22;20034;-94
2023/04/21 12:49:06;;;;;;;0.00;0.00;;;19.70;78.00;;;;;;6338986;22;20014;-95
2023/04/21 12:51:32;;;;;;;0.00;0.00;;;19.80;80.30;;;;;;6339557;22;19991;-94
2023/04/21 12:53:58;;;;;;;0.00;0.00;;;;;;;;;;6338019;22;20020;-94
2023/04/21 12:56:23;;;;;;;0.00;0.00;;;19.90;79.10;;;;;;6339525;22;20037;-94
2023/04/21 12:58:49;;;;;;;0.00;0.00;;;;;;;;;;6336450;22;20010;-94
2023/04/21 13:01:15;;;;;;;0.00;0.00;;;;;;;;;;6335908;22;19983;-93
2023/04/21 13:03:41;;;;;;;0.00;0.00;;;;;;;;;;6338712;22;20082;-92
2023/04/21 13:06:08;;;;;;;0.00;0.00;;;20.10;78.10;;;;;;6337395;22;20046;-93
2023/04/21 13:08:34;;;;;;;0.00;0.00;;;20.10;77.50;;;;;;6364474;22;20022;-91
2023/04/21 13:11:00;;;;;;;0.00;0.00;;;20.10;76.20;;;;;;6338899;22;19991;-93
2023/04/21 13:13:26;;;;;;;0.00;0.00;;;;;;;;;;6365205;22;19998;-94
2023/04/21 13:15:52;;;;;;;0.00;0.00;;;;;;;;;;6335206;22;20025;-94
2023/04/21 13:18:18;;;;;;;0.00;0.00;;;20.10;77.20;;;;;;6338394;22;20007;-93
2023/04/21 13:20:44;;;;;;;0.00;0.00;;;;;;;;;;6363281;22;20339;-93
2023/04/21 13:23:11;;;;;;;0.00;0.00;;;;;;;;;;6339468;22;20001;-93
2023/04/21 13:25:38;;;;;;;0.00;0.00;;;20.00;76.60;;;;;;6338302;22;19994;-93
2023/04/21 13:28:03;;;;;;;0.00;0.00;;;;;;;;;;6364083;22;20002;-95
2023/04/21 13:30:29;;;;;;;0.00;0.00;;;20.30;76.00;;;;;;6338737;22;20010;-95
2023/04/21 13:32:55;;;;;;;0.00;0.00;;;;;;;;;;6360203;22;19987;-93
2023/04/21 13:35:21;;;;;;;0.00;0.00;;;;;;;;;;6338299;22;20001;-94
2023/04/21 13:37:48;;;;;;;0.00;0.00;;;;;;;;;;6337253;22;20001;-94
2023/04/21 14:02:38;;;;;;;0.00;0.00;;;23.40;77.40;;;;;;6130279;23;20025;-88
2023/04/21 14:05:04;;;;;;;0.00;0.00;;;20.90;73.80;;;;;;6143757;23;20384;-90
2023/04/21 14:07:30;;;;;;;0.00;0.00;;;20.90;75.60;;;;;;6245388;22;20007;-90
2023/04/21 14:09:55;;;;;;;0.00;0.00;;;22.10;74.50;;;;;;6249566;22;20010;-88